Time;durP1;ratioP1;P1;durP2;ratioP2;P2;SDS_P1;SDS_P2;PMS_P1;PMS_P2;Temp;Humidity;BMP_temperature;BMP_pressure;BME280_temperature;BME280_humidity;BME280_pressure;Samples;Min_cycle;Max_cycle;Signal;HPM_P1;HPM_P2
2022/01/09 00:00:40;;;;;;;5.57;2.20;;;;;;;16.62;61.00;98969.53;4862248;29;20041;-79
2022/01/09 00:03:06;;;;;;;4.00;1.88;;;;;;;16.63;60.72;98985.94;4821911;29;20056;-79
2022/01/09 00:05:32;;;;;;;5.72;1.95;;;;;;;16.61;61.22;98986.03;4847983;29;20507;-79
2022/01/09 00:07:58;;;;;;;6.50;2.10;;;;;;;16.62;61.03;98985.09;4847534;29;20041;-79
2022/01/09 00:10:23;;;;;;;4.82;1.98;;;;;;;16.61;61.19;98993.81;4832084;29;20048;-79
2022/01/09 00:30:55;;;;;;;6.72;2.42;;;;;;;16.61;60.62;99026.72;5836098;23;20062;-84
2022/01/09 01:04:23;;;;;;;5.80;2.38;;;;;;;16.63;60.39;99098.47;5009523;24;20094;-79
2022/01/09 01:06:49;;;;;;;4.88;2.22;;;;;;;16.64;60.21;99104.53;4813391;29;20057;-79
2022/01/09 01:09:16;;;;;;;6.90;2.30;;;;;;;16.64;60.08;99107.13;4844731;29;20120;-79
2022/01/09 01:11:41;;;;;;;6.97;2.15;;;;;;;16.63;60.03;99113.19;4828250;29;20045;-79
2022/01/09 01:14:07;;;;;;;5.00;1.85;;;;;;;16.62;60.42;99114.97;4828540;29;20046;-79
2022/01/09 01:16:32;;;;;;;5.60;2.00;;;;;;;16.64;60.06;99118.34;4828468;29;20065;-79
2022/01/09 01:18:59;;;;;;;6.00;1.98;;;;;;;16.63;59.86;99124.44;4832763;29;20030;-83
2022/01/09 01:21:25;;;;;;;5.20;2.10;;;;;;;16.62;59.98;99120.16;5371592;24;20060;-84
2022/01/09 01:49:42;;;;;;;6.00;2.40;;;;;;;16.62;59.67;99192.88;5798196;23;20032;-83
2022/01/09 01:52:08;;;;;;;8.40;2.60;;;;;;;16.63;59.94;99202.34;4867383;29;20105;-83
2022/01/09 05:25:41;;;;;;;5.60;1.98;;;;;;;16.63;57.00;99568.56;5583932;23;20500;31
2022/01/09 05:28:06;;;;;;;12.18;3.03;;;;;;;16.65;56.75;99569.38;4820055;29;20141;-82
2022/01/09 05:30:32;;;;;;;24.02;7.32;;;;;;;16.69;56.54;99579.72;4826886;29;20029;-82
2022/01/09 05:32:58;;;;;;;23.90;7.35;;;;;;;16.72;56.52;99584.81;4918338;24;20058;-84
2022/01/09 05:35:25;;;;;;;14.15;5.88;;;;;;;16.73;56.51;99581.34;4949361;24;20061;-80
2022/01/09 05:37:51;;;;;;;16.85;5.57;;;;;;;16.72;56.84;99584.81;4816782;29;20045;-78
2022/01/09 05:40:17;;;;;;;12.40;4.57;;;;;;;16.74;56.81;99588.22;4831407;29;20069;-78
2022/01/09 05:42:42;;;;;;;16.65;4.95;;;;;;;16.77;57.01;99588.16;4846126;29;20038;-78
2022/01/09 05:45:08;;;;;;;13.70;4.30;;;;;;;16.81;56.95;99587.19;4815768;29;20037;-79
2022/01/09 05:47:34;;;;;;;12.60;3.63;;;;;;;16.82;56.92;99615.75;4830937;29;20049;-78
2022/01/09 05:49:59;;;;;;;12.40;3.65;;;;;;;16.83;56.85;99616.59;4815551;29;20045;-79
2022/01/09 05:52:25;;;;;;;8.38;3.15;;;;;;;16.83;56.81;99611.38;4830698;29;20045;-78
2022/01/09 05:54:50;;;;;;;9.20;3.38;;;;;;;16.85;56.71;99612.19;4830720;29;20049;-76
2022/01/09 05:57:15;;;;;;;10.80;3.25;;;;;;;16.86;56.88;99616.53;4830484;29;20037;-78
2022/01/09 05:59:41;;;;;;;6.57;2.92;;;;;;;16.88;56.67;99632.09;4845653;29;20044;-78
2022/01/09 06:02:06;;;;;;;11.05;3.38;;;;;;;16.89;56.64;99629.44;4815202;29;20132;-78
2022/01/09 06:04:32;;;;;;;10.98;3.33;;;;;;;16.91;56.42;99624.19;4862468;29;20511;-81
2022/01/09 06:06:57;;;;;;;6.80;2.63;;;;;;;16.93;56.52;99633.66;4865339;29;20033;-81
2022/01/09 06:09:23;;;;;;;8.43;2.90;;;;;;;16.93;56.67;99641.44;4839626;29;20112;-82
2022/01/09 06:11:48;;;;;;;10.63;3.10;;;;;;;16.94;56.60;99645.78;4874150;29;20042;-82
2022/01/09 06:14:14;;;;;;;7.85;2.83;;;;;;;16.93;56.84;99648.41;4877434;29;20061;-82
2022/01/09 06:16:39;;;;;;;7.80;2.80;;;;;;;16.93;56.68;99645.81;4861943;29;20109;-82
2022/01/09 06:19:04;;;;;;;8.48;2.80;;;;;;;16.92;56.72;99647.56;4830115;29;20049;-82
2022/01/09 06:21:30;;;;;;;6.80;2.72;;;;;;;16.92;56.75;99665.75;4859843;29;20142;-82
2022/01/09 06:23:55;;;;;;;6.63;2.58;;;;;;;16.92;56.54;99670.94;4877087;29;20037;-82
2022/01/09 06:26:21;;;;;;;4.95;2.30;;;;;;;16.93;56.37;99680.44;4846751;29;20072;-82
2022/01/09 06:28:46;;;;;;;4.53;2.08;;;;;;;16.94;56.52;99684.75;4879516;29;20057;-82
2022/01/09 06:31:12;;;;;;;4.75;2.22;;;;;;;16.95;56.42;99678.66;4846772;29;20041;-83
2022/01/09 06:33:37;;;;;;;7.50;2.83;;;;;;;16.95;56.17;99676.03;4859873;29;20045;-82
2022/01/09 06:36:03;;;;;;;5.78;2.63;;;;;;;16.95;56.29;99673.44;4861047;29;20053;-83
2022/01/09 06:38:28;;;;;;;7.47;2.30;;;;;;;16.95;56.31;99677.81;4860582;29;20066;-83
2022/01/09 06:40:53;;;;;;;5.18;2.28;;;;;;;16.95;56.03;99683.84;4843874;29;20037;-82
2022/01/09 06:43:19;;;;;;;6.15;2.30;;;;;;;16.98;56.12;99688.09;4844404;29;20037;-82
2022/01/09 06:45:44;;;;;;;5.88;2.30;;;;;;;16.98;55.82;99691.56;4844375;29;20042;-81
2022/01/09 06:48:09;;;;;;;5.55;2.35;;;;;;;16.97;56.14;99705.44;4845006;29;20068;-82
2022/01/09 06:50:35;;;;;;;4.15;2.00;;;;;;;16.98;55.91;99698.50;4844076;29;20060;-82
2022/01/09 06:53:00;;;;;;;4.30;1.90;;;;;;;16.97;55.97;99705.44;4843097;29;20061;-82
2022/01/09 06:55:26;;;;;;;5.85;2.30;;;;;;;16.97;55.98;99702.84;4859496;29;20038;-82
2022/01/09 06:57:53;;;;;;;5.47;2.10;;;;;;;16.98;55.93;99709.75;4871281;29;20038;-79
2022/01/09 07:00:19;;;;;;;6.35;2.50;;;;;;;16.98;55.88;99708.91;4830103;29;20049;-78
2022/01/09 07:02:45;;;;;;;4.82;2.00;;;;;;;16.99;55.45;99716.66;4844885;29;20400;-78
2022/01/09 07:05:10;;;;;;;5.28;2.30;;;;;;;17.00;55.59;99723.56;4829606;29;20048;-78
2022/01/09 07:07:36;;;;;;;4.75;1.90;;;;;;;17.00;55.51;99715.75;4829297;29;20095;-78
2022/01/09 07:10:01;;;;;;;4.95;1.90;;;;;;;17.00;55.68;99720.97;4861446;29;20045;-78
2022/01/09 07:12:26;;;;;;;5.68;2.00;;;;;;;17.00;55.69;99720.97;4833307;29;20037;-78
2022/01/09 07:14:52;;;;;;;5.30;2.17;;;;;;;17.01;55.59;99724.44;4833193;29;20045;-78
2022/01/09 07:17:17;;;;;;;5.78;2.10;;;;;;;17.01;55.58;99729.63;4833128;29;20456;-78
2022/01/09 07:19:42;;;;;;;4.15;1.80;;;;;;;17.01;55.50;99727.88;4832986;29;20060;-78
2022/01/09 07:22:08;;;;;;;5.80;2.08;;;;;;;17.03;55.94;99743.44;4848418;29;20096;-78
2022/01/09 07:24:34;;;;;;;4.45;1.67;;;;;;;17.01;55.37;99743.47;4848238;29;20041;-78
2022/01/09 07:26:59;;;;;;;4.95;1.98;;;;;;;16.99;55.44;99747.84;4848066;29;20066;-78
2022/01/09 07:29:25;;;;;;;4.63;1.85;;;;;;;16.99;55.63;99767.78;4833061;29;20037;-79
2022/01/09 07:31:51;;;;;;;4.85;2.17;;;;;;;16.99;55.43;99773.00;4848409;29;20034;-80
2022/01/09 07:34:21;;;;;;;4.80;1.90;;;;;;;16.98;55.59;99772.13;4847922;29;20061;-79
2022/01/09 07:36:47;;;;;;;8.68;2.00;;;;;;;16.94;55.68;99786.09;4833248;29;20038;-78
2022/01/09 07:39:13;;;;;;;5.97;2.10;;;;;;;16.86;56.17;99783.66;4849000;29;20150;-78
2022/01/09 07:41:39;;;;;;;7.78;2.22;;;;;;;16.83;56.28;99795.88;4854279;29;20049;-79
2022/01/09 07:44:05;;;;;;;12.30;2.40;;;;;;;16.83;56.37;99803.66;4838444;29;20070;-78
2022/01/09 07:46:30;;;;;;;5.75;1.95;;;;;;;16.82;56.04;99795.03;4834661;29;20053;-79
2022/01/09 07:48:56;;;;;;;5.65;1.90;;;;;;;16.81;55.82;99793.31;4866351;29;20041;-78
2022/01/09 07:51:21;;;;;;;11.65;2.38;;;;;;;16.82;56.00;99800.22;4849068;29;20062;-78
2022/01/09 07:53:47;;;;;;;4.70;1.95;;;;;;;16.81;56.10;99803.72;4848541;29;20053;-78
2022/01/09 07:56:13;;;;;;;6.95;2.10;;;;;;;16.83;55.99;99803.66;4864698;29;20052;-77
2022/01/09 07:58:38;;;;;;;6.22;1.98;;;;;;;16.82;55.98;99796.78;4833230;29;20493;-77
2022/01/09 08:01:03;;;;;;;4.45;1.58;;;;;;;16.83;55.82;99803.66;4832560;29;20058;-77
2022/01/09 08:03:29;;;;;;;5.25;1.80;;;;;;;16.83;55.90;99806.25;4864467;29;20056;-78
2022/01/09 08:05:54;;;;;;;6.80;1.77;;;;;;;16.83;55.98;99809.75;4832380;29;20037;-77
2022/01/09 08:08:20;;;;;;;5.72;1.92;;;;;;;16.83;55.81;99807.13;4847579;29;20479;-78
2022/01/09 08:10:45;;;;;;;8.48;2.20;;;;;;;16.84;55.73;99811.44;4832188;29;20049;-78
2022/01/09 08:13:10;;;;;;;5.55;2.10;;;;;;;16.88;55.68;99821.78;4832120;29;20038;-78
2022/01/09 08:15:36;;;;;;;5.57;1.90;;;;;;;16.89;55.56;99819.13;4832074;29;20042;-78
2022/01/09 08:18:02;;;;;;;3.63;1.75;;;;;;;16.89;55.97;99828.66;4847707;29;20041;-78
2022/01/09 08:20:27;;;;;;;7.65;2.10;;;;;;;16.88;55.60;99827.81;4832073;29;20044;-78
2022/01/09 08:22:52;;;;;;;4.20;1.70;;;;;;;16.90;55.54;99836.44;4830866;29;20049;-78
2022/01/09 08:25:18;;;;;;;5.15;1.58;;;;;;;16.90;55.51;99840.75;4832192;29;20075;-78
2022/01/09 08:27:45;;;;;;;7.95;1.88;;;;;;;16.91;55.67;99835.53;4863065;29;20366;-79
2022/01/09 08:30:12;;;;;;;5.38;1.67;;;;;;;16.92;55.75;99837.25;4847678;29;20553;-77
2022/01/09 08:32:38;;;;;;;4.07;1.70;;;;;;;16.94;55.49;99850.19;4864412;29;20046;-78
2022/01/09 08:35:05;;;;;;;3.75;1.60;;;;;;;16.95;55.78;99846.72;4863726;29;20105;-78
2022/01/09 08:37:31;;;;;;;3.67;1.65;;;;;;;16.94;55.43;99853.66;4847470;29;20030;-78
2022/01/09 08:39:56;;;;;;;4.38;1.73;;;;;;;16.99;55.47;99863.97;4863600;29;20120;-79
2022/01/09 08:42:22;;;;;;;5.70;1.92;;;;;;;16.99;55.60;99867.41;4847049;29;20044;-79
2022/01/09 08:44:47;;;;;;;5.20;1.73;;;;;;;16.98;55.68;99870.88;4847300;29;20397;-78
2022/01/09 08:47:13;;;;;;;3.45;1.60;;;;;;;16.99;55.67;99882.16;4831956;29;20033;-78
2022/01/09 08:49:38;;;;;;;3.75;1.65;;;;;;;16.98;55.41;99877.81;4832557;29;20534;-78
2022/01/09 08:52:04;;;;;;;5.38;1.90;;;;;;;16.95;55.54;99883.97;4831915;29;20044;-78
2022/01/09 08:54:30;;;;;;;4.18;1.77;;;;;;;16.94;55.51;99884.84;4847426;29;20488;-78
2022/01/09 08:56:57;;;;;;;4.70;1.75;;;;;;;16.97;55.23;99887.38;4847702;29;20045;-78
2022/01/09 08:59:22;;;;;;;4.35;1.80;;;;;;;16.92;58.41;99890.94;4847263;29;20060;-78
2022/01/09 09:01:49;;;;;;;7.32;1.65;;;;;;;16.82;57.70;99900.69;4847035;29;20485;-78
2022/01/09 09:04:15;;;;;;;5.32;1.98;;;;;;;16.74;59.43;99900.81;4862020;29;20146;-79
2022/01/09 09:06:41;;;;;;;6.90;1.90;;;;;;;16.67;60.14;99913.06;4831620;29;20065;-79
2022/01/09 09:09:07;;;;;;;5.55;1.50;;;;;;;16.64;59.63;99902.75;4846264;29;20512;-78
2022/01/09 09:11:33;;;;;;;7.13;1.80;;;;;;;16.65;59.07;99907.06;4863938;29;20042;-77
2022/01/09 09:13:59;;;;;;;4.38;1.80;;;;;;;16.64;58.47;99913.16;4846697;29;20484;-78
2022/01/09 09:16:24;;;;;;;6.57;2.15;;;;;;;16.63;58.51;99914.03;4831513;29;20522;-78
2022/01/09 09:18:52;;;;;;;4.53;1.85;;;;;;;16.62;60.22;99921.88;4846948;29;20045;-78
2022/01/09 09:21:17;;;;;;;5.18;1.50;;;;;;;16.62;58.52;99911.47;4846826;29;20076;-77
2022/01/09 09:23:43;;;;;;;4.30;1.70;;;;;;;16.60;59.19;99919.28;4863038;29;20061;-78
2022/01/09 09:26:09;;;;;;;5.53;1.95;;;;;;;16.59;58.05;99919.31;4830877;29;20037;-77
2022/01/09 09:28:35;;;;;;;6.25;1.92;;;;;;;16.61;59.18;99925.34;4846165;29;20045;-78
2022/01/09 09:31:00;;;;;;;5.30;1.65;;;;;;;16.61;58.71;99934.00;4831235;29;20181;-78
2022/01/09 09:33:29;;;;;;;10.48;1.85;;;;;;;16.70;61.05;99938.16;4877597;29;20041;-81
2022/01/09 09:35:54;;;;;;;4.80;1.85;;;;;;;16.70;59.08;99935.56;4856848;29;20076;-82
2022/01/09 09:40:55;;;;;;;7.50;2.00;;;;;;;16.67;59.41;99944.25;5395047;23;20049;-83
2022/01/09 09:47:22;;;;;;;7.20;1.80;;;;;;;16.71;59.79;99950.25;4883859;29;20150;-83
2022/01/09 09:50:02;;;;;;;4.18;1.70;;;;;;;16.71;58.94;99946.81;4881083;29;20182;-82
2022/01/09 09:52:48;;;;;;;5.68;1.58;;;;;;;16.73;60.86;99945.88;4864425;29;20042;-82
2022/01/09 09:55:16;;;;;;;3.30;1.17;;;;;;;16.74;58.99;99955.38;4880663;29;20070;-82
2022/01/09 09:57:42;;;;;;;4.57;1.55;;;;;;;16.77;59.75;99962.28;4866100;29;20037;-81
2022/01/09 10:00:09;;;;;;;6.75;1.90;;;;;;;16.74;59.29;99970.97;4865853;29;20081;-81
2022/01/09 10:02:44;;;;;;;7.63;1.80;;;;;;;16.75;60.02;99962.31;4868329;29;20061;-82
2022/01/09 10:05:11;;;;;;;4.72;1.80;;;;;;;16.79;59.88;99978.69;4869085;29;20070;-83
2022/01/09 10:07:36;;;;;;;3.47;1.50;;;;;;;16.86;59.90;99980.31;4869111;29;20045;-83
2022/01/09 10:10:11;;;;;;;3.92;1.45;;;;;;;16.83;60.24;99981.22;4868574;29;20041;-84
2022/01/09 10:12:38;;;;;;;4.32;1.70;;;;;;;16.81;60.05;99980.41;4865823;29;20041;-83
2022/01/09 10:15:06;;;;;;;4.68;1.55;;;;;;;16.81;60.64;99988.19;4865834;29;20062;-82
2022/01/09 10:17:32;;;;;;;3.63;1.40;;;;;;;16.82;60.52;99982.09;4881252;29;20030;-81
2022/01/09 10:20:00;;;;;;;5.88;1.67;;;;;;;16.81;59.60;99982.13;4882370;29;20066;-83
2022/01/09 10:22:46;;;;;;;4.40;1.77;;;;;;;16.82;60.00;99989.03;4867387;29;20029;-82
2022/01/09 10:25:21;;;;;;;4.10;1.20;;;;;;;16.82;61.56;99984.69;4883386;29;20033;-83
2022/01/09 10:27:49;;;;;;;4.22;1.60;;;;;;;16.79;60.43;99995.13;4884958;29;20068;-83
2022/01/09 10:30:14;;;;;;;4.93;1.60;;;;;;;16.80;60.53;99990.81;4884505;29;20025;-82
2022/01/09 10:32:46;;;;;;;3.67;1.48;;;;;;;16.79;60.58;99989.94;4884569;29;20041;-82
2022/01/09 10:35:17;;;;;;;5.20;1.58;;;;;;;16.77;59.92;99988.25;4884952;29;20045;-82
2022/01/09 10:37:48;;;;;;;4.22;1.65;;;;;;;16.79;60.77;99999.47;4880184;29;20029;-81
2022/01/09 10:40:22;;;;;;;3.30;1.33;;;;;;;16.83;59.13;100002.03;4886255;29;20059;-82
2022/01/09 10:43:04;;;;;;;4.95;1.60;;;;;;;16.85;59.29;100007.16;4885998;29;20044;-82
2022/01/09 10:45:31;;;;;;;4.45;1.75;;;;;;;16.93;60.56;99994.88;4886170;29;20065;-83
2022/01/09 10:48:11;;;;;;;5.50;1.70;;;;;;;16.98;59.21;100005.19;5006052;23;20066;-85
2022/01/09 10:50:39;;;;;;;4.05;1.50;;;;;;;17.03;58.61;100027.59;4884454;29;20069;-85
2022/01/09 10:53:15;;;;;;;4.15;1.67;;;;;;;16.98;59.97;100026.81;4900273;29;20021;-82
2022/01/09 10:55:41;;;;;;;4.85;1.50;;;;;;;16.88;60.18;100034.84;4884606;29;20022;-84
2022/01/09 10:58:23;;;;;;;4.70;1.60;;;;;;;16.82;60.42;100036.66;4885318;29;20021;-84
2022/01/09 11:01:23;;;;;;;5.43;1.58;;;;;;;16.80;59.79;100035.00;4884887;29;20101;-83
2022/01/09 11:04:09;;;;;;;3.13;1.35;;;;;;;16.81;60.13;100053.16;4882203;29;20044;-83
2022/01/09 11:06:38;;;;;;;2.90;1.38;;;;;;;16.77;59.36;100054.06;4882720;29;20030;-80
2022/01/09 11:09:05;;;;;;;2.63;1.23;;;;;;;16.78;59.87;100052.31;4894021;29;20034;-82
2022/01/09 11:11:36;;;;;;;3.70;1.45;;;;;;;16.79;60.46;100067.03;4879142;29;20069;-82
2022/01/09 11:14:05;;;;;;;3.45;1.25;;;;;;;16.77;60.40;100082.66;4890956;29;20145;-82
2022/01/09 11:16:37;;;;;;;3.80;1.40;;;;;;;16.77;60.95;100072.25;4873017;29;20112;-81
2022/01/09 11:19:11;;;;;;;5.47;1.40;;;;;;;16.80;61.21;100063.56;4871567;29;20056;-81
2022/01/09 11:21:46;;;;;;;3.83;1.25;;;;;;;16.76;61.07;100067.06;4871509;29;20034;-82
2022/01/09 11:24:49;;;;;;;4.10;1.65;;;;;;;16.78;60.73;100067.91;4867695;29;20089;-81
2022/01/09 11:27:22;;;;;;;4.45;1.40;;;;;;;16.80;60.88;100060.97;4879411;29;20037;-81
2022/01/09 11:30:14;;;;;;;4.28;1.45;;;;;;;16.78;59.43;100060.09;4865562;29;20389;-81
2022/01/09 11:32:48;;;;;;;3.33;1.20;;;;;;;16.80;60.43;100071.38;4861296;29;20036;-80
2022/01/09 11:35:38;;;;;;;6.00;1.77;;;;;;;16.82;60.42;100074.78;4878210;29;20045;-81
2022/01/09 11:38:14;;;;;;;3.53;1.20;;;;;;;16.83;60.31;100079.09;4880563;29;20042;-81
2022/01/09 11:40:39;;;;;;;4.60;1.40;;;;;;;16.83;60.40;100084.28;4881545;29;20037;-82
2022/01/09 11:43:20;;;;;;;3.63;1.20;;;;;;;16.85;60.67;100087.72;4866544;29;20046;-81
2022/01/09 11:46:02;;;;;;;4.90;1.42;;;;;;;16.83;60.45;100087.78;4864849;29;20034;-81
2022/01/09 11:49:03;;;;;;;5.15;1.48;;;;;;;16.88;60.55;100087.69;4847496;29;20057;-81
2022/01/09 11:51:31;;;;;;;3.40;1.27;;;;;;;16.91;60.06;100087.59;4836514;29;20097;-81
2022/01/09 11:53:56;;;;;;;3.08;1.10;;;;;;;16.92;58.94;100084.13;4850538;29;20042;-81
2022/01/09 12:01:37;;;;;;;5.35;1.35;;;;;;;16.96;59.08;100100.50;5131283;23;20054;-83
2022/01/09 12:04:03;;;;;;;5.03;1.35;;;;;;;16.93;60.50;100105.78;4853601;29;20042;-83
2022/01/09 12:09:05;;;;;;;5.47;1.65;;;;;;;16.98;60.92;100112.59;5475070;24;20051;-82
2022/01/09 12:20:41;;;;;;;4.97;1.30;;;;;;;17.06;60.20;100115.91;5934198;23;21185;-81
2022/01/09 12:23:08;;;;;;;5.28;1.60;;;;;;;17.08;59.93;100126.28;4878578;29;20057;-82
2022/01/09 12:25:33;;;;;;;3.22;1.40;;;;;;;17.07;59.04;100134.97;4876879;29;20017;-82
2022/01/09 12:28:02;;;;;;;5.00;1.52;;;;;;;17.06;59.47;100128.91;4868432;29;20066;-84
2022/01/09 12:30:30;;;;;;;4.15;1.30;;;;;;;17.07;60.21;100127.16;4848962;29;20076;-78
2022/01/09 12:32:56;;;;;;;3.88;1.20;;;;;;;17.07;59.81;100134.97;4847374;29;20038;-77
2022/01/09 12:35:22;;;;;;;3.83;1.30;;;;;;;17.07;59.37;100132.34;4832110;29;20033;-78
2022/01/09 12:37:55;;;;;;;4.53;1.42;;;;;;;17.09;59.31;100137.53;4863796;29;20037;-77
2022/01/09 12:40:23;;;;;;;3.83;1.33;;;;;;;17.05;60.18;100145.41;4862587;29;20033;-78
2022/01/09 12:42:51;;;;;;;4.50;1.45;;;;;;;17.10;59.58;100147.91;4846825;29;20401;-77
2022/01/09 12:45:29;;;;;;;2.55;1.20;;;;;;;17.10;61.29;100149.66;4832084;29;20131;-78
2022/01/09 12:47:56;;;;;;;3.50;1.20;;;;;;;17.09;58.94;100153.13;5059798;23;20069;-85
2022/01/09 12:50:30;;;;;;;4.07;1.55;;;;;;;17.08;60.68;100154.88;4904522;29;20073;-82
2022/01/09 12:53:31;;;;;;;3.58;1.45;;;;;;;17.07;60.11;100150.56;4882698;29;20108;-82
2022/01/09 12:56:06;;;;;;;4.80;1.50;;;;;;;17.13;59.01;100154.81;4898223;29;20377;-80
2022/01/09 12:58:37;;;;;;;5.72;1.75;;;;;;;17.19;60.24;100162.50;4887940;29;20040;-80
2022/01/09 13:01:05;;;;;;;4.00;1.27;;;;;;;17.19;59.79;100165.94;4883228;29;20433;-81
2022/01/09 13:03:33;;;;;;;4.50;1.42;;;;;;;17.19;58.38;100168.53;4866440;29;20033;-81
2022/01/09 13:06:07;;;;;;;4.53;1.55;;;;;;;17.15;60.76;100174.69;4882746;29;20176;-80
2022/01/09 13:08:39;;;;;;;4.75;1.50;;;;;;;17.13;60.96;100181.66;4866264;29;20041;-81
2022/01/09 13:11:06;;;;;;;9.50;1.77;;;;;;;17.15;62.23;100179.88;4867972;29;20039;-80
2022/01/09 13:13:33;;;;;;;6.50;1.45;;;;;;;17.16;62.63;100188.53;4881667;29;20412;-81
2022/01/09 13:15:59;;;;;;;5.85;1.50;;;;;;;17.18;62.65;100185.03;4866755;29;20041;-81
2022/01/09 13:18:42;;;;;;;7.03;1.50;;;;;;;17.20;61.61;100183.28;4867840;29;20396;-81
2022/01/09 13:21:19;;;;;;;4.53;1.48;;;;;;;17.24;63.25;100182.31;4868981;29;20104;-81
2022/01/09 13:23:55;;;;;;;6.07;1.63;;;;;;;17.21;62.88;100187.56;4882207;29;20037;-81
2022/01/09 13:26:22;;;;;;;5.40;1.45;;;;;;;17.22;64.00;100193.63;4880964;29;20037;-80
2022/01/09 13:28:49;;;;;;;4.93;1.63;;;;;;;17.21;62.92;100191.91;4882165;29;20047;-80
2022/01/09 13:31:16;;;;;;;5.10;1.27;;;;;;;17.20;63.28;100198.88;4882150;29;20073;-80
2022/01/09 13:34:04;;;;;;;6.70;1.40;;;;;;;17.21;62.08;100203.16;4866877;29;20124;-81
2022/01/09 13:36:39;;;;;;;5.20;1.55;;;;;;;17.24;62.17;100207.44;4868946;29;20502;-81
2022/01/09 13:39:19;;;;;;;6.28;1.63;;;;;;;17.23;62.79;100213.56;4882921;29;20039;-81
2022/01/09 13:41:55;;;;;;;6.38;1.65;;;;;;;17.21;64.22;100215.31;4881749;29;20040;-81
2022/01/09 13:44:32;;;;;;;4.00;1.25;;;;;;;17.24;63.40;100223.06;4882207;29;20039;-81
2022/01/09 13:47:14;;;;;;;10.32;1.90;;;;;;;17.22;62.97;100236.09;4866471;29;20094;-81
2022/01/09 13:49:57;;;;;;;3.13;1.30;;;;;;;17.22;63.71;100240.44;4866437;29;20073;-80
2022/01/09 13:52:24;;;;;;;7.60;1.83;;;;;;;17.19;63.11;100235.28;4866738;29;20033;-80
2022/01/09 13:55:15;;;;;;;5.80;1.67;;;;;;;17.21;63.26;100241.31;4865499;29;20438;-81
2022/01/09 13:58:01;;;;;;;7.28;1.75;;;;;;;17.21;63.67;100255.19;4865898;29;20033;-81
2022/01/09 14:00:28;;;;;;;4.97;1.50;;;;;;;17.20;63.60;100250.00;4882630;29;20069;-80
2022/01/09 14:02:56;;;;;;;4.65;1.80;;;;;;;17.20;63.23;100244.78;4883155;29;20033;-81
2022/01/09 14:05:23;;;;;;;5.57;1.23;;;;;;;17.21;62.69;100241.31;4882861;29;20100;-80
2022/01/09 14:07:51;;;;;;;5.00;1.58;;;;;;;17.21;62.55;100243.94;4850176;29;20041;-81
2022/01/09 14:10:18;;;;;;;3.38;1.38;;;;;;;17.21;63.18;100252.56;4865235;29;20037;-81
2022/01/09 14:12:45;;;;;;;4.57;1.60;;;;;;;17.19;63.83;100249.13;4865043;29;20127;-81
2022/01/09 14:15:19;;;;;;;3.95;1.35;;;;;;;17.18;63.78;100255.25;4882328;29;20040;-81
2022/01/09 14:17:52;;;;;;;3.10;1.40;;;;;;;17.19;63.79;100256.94;4865463;29;20072;-80
2022/01/09 14:20:20;;;;;;;3.70;1.40;;;;;;;17.21;63.97;100256.94;4881415;29;20049;-80
2022/01/09 14:22:54;;;;;;;5.15;1.50;;;;;;;17.18;64.22;100262.16;4864772;29;20040;-81
2022/01/09 14:25:24;;;;;;;3.35;1.50;;;;;;;17.20;63.67;100271.69;4881886;29;20033;-81
2022/01/09 14:27:50;;;;;;;5.35;1.50;;;;;;;17.20;63.98;100271.69;4865075;29;20441;-81
2022/01/09 14:30:28;;;;;;;5.55;1.35;;;;;;;17.21;64.10;100277.72;4864461;29;20033;-81
2022/01/09 14:33:13;;;;;;;3.92;1.38;;;;;;;17.22;64.31;100279.44;4866003;29;20047;-81
2022/01/09 14:35:52;;;;;;;5.55;1.60;;;;;;;17.19;63.32;100279.50;4887457;29;20049;-82
2022/01/09 14:38:24;;;;;;;7.18;1.73;;;;;;;17.17;63.33;100292.50;4881312;29;20037;-80
2022/01/09 14:40:52;;;;;;;4.80;1.70;;;;;;;17.21;63.11;100290.72;4864281;29;20510;-81
2022/01/09 14:43:21;;;;;;;4.20;1.50;;;;;;;17.21;62.86;100295.94;4881346;29;20480;-81
2022/01/09 14:45:50;;;;;;;4.13;1.50;;;;;;;17.21;64.32;100293.34;4849748;29;20045;-81
2022/01/09 14:48:16;;;;;;;3.40;1.67;;;;;;;17.21;63.88;100296.78;4881143;29;20045;-80
2022/01/09 14:50:44;;;;;;;5.30;1.27;;;;;;;17.22;64.09;100303.72;4849557;29;20045;-81
2022/01/09 14:53:10;;;;;;;4.00;1.35;;;;;;;17.23;62.97;100305.41;4881147;29;20037;-80
2022/01/09 14:55:36;;;;;;;4.22;1.50;;;;;;;17.24;63.45;100308.88;4864543;29;20143;-81
2022/01/09 14:58:03;;;;;;;3.67;1.30;;;;;;;17.26;63.86;100301.91;4848995;29;20515;-80
2022/01/09 15:00:28;;;;;;;5.60;1.38;;;;;;;17.25;62.85;100321.84;4849542;29;20045;-80
2022/01/09 15:02:54;;;;;;;6.93;1.50;;;;;;;17.22;63.36;100321.91;4890913;29;20169;-81
2022/01/09 15:05:19;;;;;;;3.83;1.42;;;;;;;17.25;62.52;100323.59;4872658;29;20041;-80
2022/01/09 15:07:45;;;;;;;4.63;1.55;;;;;;;17.21;63.04;100319.34;4849771;29;20033;-81
2022/01/09 15:10:10;;;;;;;3.95;1.08;;;;;;;17.22;62.79;100321.91;4866287;29;20078;-80
2022/01/09 15:12:37;;;;;;;5.15;1.80;;;;;;;17.27;63.39;100329.63;4848120;29;20116;-80
2022/01/09 15:15:04;;;;;;;4.55;1.50;;;;;;;17.26;63.40;100333.09;4849185;29;20056;-80
2022/01/09 15:17:29;;;;;;;3.67;1.30;;;;;;;17.25;62.89;100334.00;4881018;29;20061;-80
2022/01/09 15:19:55;;;;;;;3.63;1.45;;;;;;;17.25;63.21;100344.41;4881226;29;20048;-79
2022/01/09 15:22:20;;;;;;;6.32;1.40;;;;;;;17.23;63.20;100340.97;4880990;29;20069;-80
2022/01/09 15:24:46;;;;;;;4.05;1.48;;;;;;;17.25;63.92;100350.47;4879981;29;20484;-80
2022/01/09 15:27:13;;;;;;;4.75;1.50;;;;;;;17.25;63.33;100344.41;4848592;29;20041;-80
2022/01/09 15:29:40;;;;;;;2.85;1.23;;;;;;;17.25;63.33;100353.06;4880289;29;20488;-80
2022/01/09 15:32:05;;;;;;;4.32;1.33;;;;;;;17.25;63.45;100352.22;4864947;29;20048;-80
2022/01/09 15:34:31;;;;;;;4.15;1.23;;;;;;;17.28;63.51;100354.75;4867312;29;20403;-80
2022/01/09 15:36:59;;;;;;;4.75;1.40;;;;;;;17.24;62.91;100359.13;4868008;29;20037;-80
2022/01/09 15:39:24;;;;;;;4.13;1.33;;;;;;;17.24;62.91;100359.13;4867545;29;20451;-80
2022/01/09 15:41:50;;;;;;;3.53;1.38;;;;;;;17.26;63.77;100361.72;4836620;29;20065;-80
2022/01/09 15:44:15;;;;;;;4.60;1.35;;;;;;;17.24;63.27;100366.06;4884537;29;20041;-80
2022/01/09 15:46:40;;;;;;;3.92;1.45;;;;;;;17.24;63.49;100368.69;4851703;29;20038;-80
2022/01/09 15:49:06;;;;;;;4.10;1.40;;;;;;;17.26;62.99;100378.16;4866729;29;20105;-80
2022/01/09 15:51:33;;;;;;;5.30;1.25;;;;;;;17.25;62.87;100381.66;4851198;29;20037;-80
2022/01/09 15:53:59;;;;;;;4.05;1.60;;;;;;;17.25;62.61;100386.00;4866597;29;20110;-80
2022/01/09 15:56:24;;;;;;;4.07;1.42;;;;;;;17.24;63.02;100395.53;4851305;29;20041;-80
2022/01/09 15:58:50;;;;;;;3.70;1.20;;;;;;;17.24;62.80;100392.94;4866528;29;20488;-80
2022/01/09 16:01:23;;;;;;;4.70;1.45;;;;;;;17.24;62.88;100397.28;4851387;29;20103;-80
2022/01/09 16:03:49;;;;;;;2.53;1.17;;;;;;;17.26;62.81;100404.16;4866695;29;20069;-80
2022/01/09 16:06:14;;;;;;;4.28;1.25;;;;;;;17.25;62.52;100399.88;4866426;29;20132;-80
2022/01/09 16:08:42;;;;;;;3.42;1.10;;;;;;;17.22;62.56;100405.13;4866564;29;20089;-80
2022/01/09 16:11:08;;;;;;;2.88;1.33;;;;;;;17.25;63.07;100414.63;4851491;29;20041;-80
2022/01/09 16:13:36;;;;;;;3.30;1.30;;;;;;;17.26;61.94;100411.13;4867317;29;20096;-81
2022/01/09 16:16:02;;;;;;;3.70;1.50;;;;;;;17.25;61.87;100415.47;4885773;29;20047;-81
2022/01/09 16:18:27;;;;;;;3.42;1.30;;;;;;;17.25;62.41;100418.06;4857293;29;20478;-81
2022/01/09 16:20:53;;;;;;;4.30;1.30;;;;;;;17.27;62.71;100425.84;4892193;29;20037;-82
2022/01/09 16:23:18;;;;;;;4.25;1.40;;;;;;;17.25;62.47;100425.88;4870023;29;20197;-77
2022/01/09 16:25:44;;;;;;;3.85;1.30;;;;;;;17.23;61.47;100419.84;4867188;29;20079;-77
2022/01/09 16:28:09;;;;;;;3.15;1.40;;;;;;;17.21;62.62;100428.53;4852413;29;20041;-76
2022/01/09 16:30:35;;;;;;;3.03;1.40;;;;;;;17.21;62.67;100428.53;4851865;29;20124;-77
2022/01/09 16:33:00;;;;;;;3.88;1.33;;;;;;;17.22;62.77;100436.31;4882815;29;20080;-77
2022/01/09 16:35:27;;;;;;;3.67;1.35;;;;;;;17.26;62.23;100437.13;4865630;29;20045;-77
2022/01/09 16:37:53;;;;;;;3.40;1.35;;;;;;;17.23;61.80;100440.63;4850433;29;20181;-77
2022/01/09 16:40:18;;;;;;;3.17;1.38;;;;;;;17.26;63.61;100443.19;4866043;29;20120;-77
2022/01/09 16:42:44;;;;;;;3.45;1.40;;;;;;;17.25;63.31;100441.47;4865063;29;20062;-77
2022/01/09 16:45:09;;;;;;;4.40;1.30;;;;;;;17.24;61.86;100444.09;4834600;29;20176;-77